AirNav   Air Wisconsin Up To $57,000 Bonus
 
 1980 users online  

60NH Sherwood Forest Inc Heliport
Freedom, New Hampshire, USA

GOING TO FREEDOM?


FAA INFORMATION EFFECTIVE 02 JANUARY 2020

Location

FAA Identifier: 60NH
Lat/Long: 43-48-31.0000N 071-05-30.0000W
43-48.516667N 071-05.500000W
43.8086111,-71.0916667
(estimated)
Elevation: 433 ft. / 132 m (estimated)
From city: 3 miles W of FREEDOM, NH
Time zone: UTC -5 (UTC -4 during Daylight Saving Time)
Zip code: 03836

Heliport Operations

Heliport use: Private use. Permission required prior to landing
Activation date: 12/2015
Control tower: no
ARTCC: BOSTON CENTER
FSS: BANGOR FLIGHT SERVICE STATION
Attendance: UNATNDD
Wind indicator: yes
Segmented circle: no

Heliport Communications

WX ASOS at IZG (13 nm NE): 135.775 (207-935-2882)

Nearby radio navigation aids

VOR radial/distance  VOR name  Freq  Var
ENEr335/31.0KENNEBUNK VOR/DME117.1017W

 
NDB name  Hdg/Dist  Freq  Var  ID
ROLLINS358/37.126016WESG . ... --.

Heliport Services

Runway Information

Helipad H1

Dimensions: 300 x 300 ft. / 91 x 91 m
Surface: turf
Traffic pattern: leftleft

Heliport Ownership and Management from official FAA records

Ownership: Privately-owned
Owner: DAVID M. SOLOMON
145 CENTRAL PARK WEST, 4C
NEW YORK, NY 10023
Phone 212-902-5051
Manager: DAVID M. SOLOMON
145 CENTRAL PARK WEST, 4C
NEW YORK, NY 10023
Phone 212-902-5051

Additional Remarks

HEL LDG ZONE IS AT LEAST 300 FT BY 300 FT, FLAT GRASS FLD.
FOR CD CTC PORTLAND APCH AT 207-874-7320, WHEN APCH CLSD CTC BOSTON ARTCC AT 603-879-6859.

Instrument Procedures

There are no published instrument procedures at 60NH.

Some nearby airports with instrument procedures:

KIZG - Eastern Slopes Regional Airport (13 nm NE)
KLCI - Laconia Municipal Airport (20 nm SW)
KSFM - Sanford Seacoast Regional Airport (30 nm SE)
KDAW - Skyhaven Airport (32 nm S)
81B - Oxford County Regional Airport (34 nm NE)
 
Loc | Ops | Rwys | IFR | FBO | Links
Com | Nav | Svcs | Stats | Notes
Aerial photo
No photo
 
Airport distance calculator
Flying to Sherwood Forest Inc Heliport? Find the distance to fly.

From to 60NH

Sunrise and sunset
Times for 22-Jan-2020
 Local
(UTC-5)
 Zulu
(UTC)
Morning civil twilight06:4011:40
Sunrise07:1212:12
Sunset16:4021:40
Evening civil twilight17:1222:12

Current date and time
Zulu (UTC)  22-Jan-2020 19:32:40
Local (UTC-5)  22-Jan-2020 14:32:40
 
METAR
KIZG 
12nm NE 
221854Z AUTO 00000KT 10SM CLR 01/M12 A3033 RMK AO2 SLP280 T00111117
KCWN 
13nm N 
221855Z VRB06KT 10SM BKN150 06/M09 A2985 RMK AO2 SLP024 T00561087
KLCI 
20nm SW 
221856Z AUTO 24007KT 10SM CLR 00/M08 A3033 RMK AO2 SLP282 T00001083 FZRANO
TAF
KPWM 
36nm E 
221720Z 2218/2318 23004KT P6SM SCT250
KHIE 
39nm NW 
221720Z 2218/2318 VRB03KT P6SM SCT250
KCON 
41nm SW 
221720Z 2218/2318 VRB03KT P6SM SCT250
NOTAMs
Click for the latest NOTAMs
NOTAMs are issued by the DoD/FAA and will open in a separate window not controlled by AirNav.

 

 
 

Would you like to see your business listed on this page?

 If your business provides an interesting product or service to pilots, flight crews, aircraft, or users of the Sherwood Forest Inc Heliport, you should consider listing it here.  To start the listing process, click on the button below
 
Add a business
 

Other Pages about Sherwood Forest Inc Heliport

Update a link
 
Copyright © AirNav, LLC. All rights reserved. Privacy Policy  Contact